sensor_id;sensor_type;location;lat;lon;timestamp;P1;durP1;ratioP1;P2;durP2;ratioP2
53207;SDS011;39093;52.788;6.940;2023-03-21T00:01:50;59.90;;;34.63;;
53207;SDS011;39093;52.788;6.940;2023-03-21T00:04:19;54.45;;;32.90;;
53207;SDS011;39093;52.788;6.940;2023-03-21T00:06:47;47.05;;;31.65;;
53207;SDS011;39093;52.788;6.940;2023-03-21T00:09:14;44.28;;;31.20;;
53207;SDS011;39093;52.788;6.940;2023-03-21T00:11:41;47.08;;;33.28;;
53207;SDS011;39093;52.788;6.940;2023-03-21T00:14:08;52.45;;;33.83;;
53207;SDS011;39093;52.788;6.940;2023-03-21T00:16:41;53.50;;;33.38;;
53207;SDS011;39093;52.788;6.940;2023-03-21T00:19:11;57.53;;;34.10;;
53207;SDS011;39093;52.788;6.940;2023-03-21T00:21:39;60.38;;;34.35;;
53207;SDS011;39093;52.788;6.940;2023-03-21T00:24:28;51.78;;;32.20;;
53207;SDS011;39093;52.788;6.940;2023-03-21T00:26:55;57.47;;;34.42;;
53207;SDS011;39093;52.788;6.940;2023-03-21T00:29:41;48.17;;;32.67;;
53207;SDS011;39093;52.788;6.940;2023-03-21T00:32:08;55.45;;;34.22;;
53207;SDS011;39093;52.788;6.940;2023-03-21T00:34:34;62.15;;;34.95;;
53207;SDS011;39093;52.788;6.940;2023-03-21T00:37:13;49.78;;;32.90;;
53207;SDS011;39093;52.788;6.940;2023-03-21T00:39:45;56.63;;;34.00;;
53207;SDS011;39093;52.788;6.940;2023-03-21T00:42:17;48.65;;;32.25;;
53207;SDS011;39093;52.788;6.940;2023-03-21T00:44:44;54.33;;;33.83;;
53207;SDS011;39093;52.788;6.940;2023-03-21T00:47:11;57.38;;;35.35;;
53207;SDS011;39093;52.788;6.940;2023-03-21T00:49:38;53.35;;;34.25;;
53207;SDS011;39093;52.788;6.940;2023-03-21T00:52:07;53.40;;;33.88;;
53207;SDS011;39093;52.788;6.940;2023-03-21T00:54:47;59.47;;;36.30;;
53207;SDS011;39093;52.788;6.940;2023-03-21T00:57:14;58.55;;;37.05;;
53207;SDS011;39093;52.788;6.940;2023-03-21T00:59:42;54.88;;;35.85;;
53207;SDS011;39093;52.788;6.940;2023-03-21T01:02:08;53.42;;;35.97;;
53207;SDS011;39093;52.788;6.940;2023-03-21T01:04:39;61.45;;;37.03;;
53207;SDS011;39093;52.788;6.940;2023-03-21T01:07:09;56.92;;;35.88;;
53207;SDS011;39093;52.788;6.940;2023-03-21T01:09:35;55.63;;;36.28;;
53207;SDS011;39093;52.788;6.940;2023-03-21T01:12:03;58.10;;;35.88;;
53207;SDS011;39093;52.788;6.940;2023-03-21T01:14:30;61.42;;;37.78;;
53207;SDS011;39093;52.788;6.940;2023-03-21T01:16:57;53.95;;;36.85;;
53207;SDS011;39093;52.788;6.940;2023-03-21T01:19:24;66.40;;;39.30;;
53207;SDS011;39093;52.788;6.940;2023-03-21T01:22:13;63.03;;;38.83;;
53207;SDS011;39093;52.788;6.940;2023-03-21T01:24:40;67.25;;;39.88;;
53207;SDS011;39093;52.788;6.940;2023-03-21T01:27:20;73.22;;;40.15;;
53207;SDS011;39093;52.788;6.940;2023-03-21T01:29:47;73.95;;;40.72;;
53207;SDS011;39093;52.788;6.940;2023-03-21T01:32:14;64.30;;;39.78;;
53207;SDS011;39093;52.788;6.940;2023-03-21T01:34:42;71.60;;;39.60;;
53207;SDS011;39093;52.788;6.940;2023-03-21T01:37:08;61.13;;;37.10;;
53207;SDS011;39093;52.788;6.940;2023-03-21T01:39:35;58.78;;;37.53;;
53207;SDS011;39093;52.788;6.940;2023-03-21T01:42:02;57.17;;;37.53;;
53207;SDS011;39093;52.788;6.940;2023-03-21T01:44:29;66.68;;;38.88;;
53207;SDS011;39093;52.788;6.940;2023-03-21T01:46:56;63.78;;;39.47;;
53207;SDS011;39093;52.788;6.940;2023-03-21T01:49:37;52.80;;;36.45;;
53207;SDS011;39093;52.788;6.940;2023-03-21T01:59:59;58.63;;;37.30;;
53207;SDS011;39093;52.788;6.940;2023-03-21T02:02:42;56.65;;;34.40;;
53207;SDS011;39093;52.788;6.940;2023-03-21T02:05:31;59.45;;;35.90;;
53207;SDS011;39093;52.788;6.940;2023-03-21T02:08:07;51.50;;;33.33;;
53207;SDS011;39093;52.788;6.940;2023-03-21T02:10:34;53.75;;;35.10;;
53207;SDS011;39093;52.788;6.940;2023-03-21T02:13:02;52.42;;;34.25;;
53207;SDS011;39093;52.788;6.940;2023-03-21T02:15:36;45.50;;;31.50;;
53207;SDS011;39093;52.788;6.940;2023-03-21T02:18:23;49.20;;;33.30;;
53207;SDS011;39093;52.788;6.940;2023-03-21T02:24:40;47.58;;;31.13;;
53207;SDS011;39093;52.788;6.940;2023-03-21T02:27:24;41.65;;;29.77;;
53207;SDS011;39093;52.788;6.940;2023-03-21T02:35:49;38.28;;;27.52;;
53207;SDS011;39093;52.788;6.940;2023-03-21T02:38:39;42.67;;;29.30;;
53207;SDS011;39093;52.788;6.940;2023-03-21T02:41:11;46.75;;;28.35;;
53207;SDS011;39093;52.788;6.940;2023-03-21T02:43:53;39.28;;;28.55;;
53207;SDS011;39093;52.788;6.940;2023-03-21T02:46:57;38.88;;;28.27;;
53207;SDS011;39093;52.788;6.940;2023-03-21T02:49:38;40.22;;;27.13;;
53207;SDS011;39093;52.788;6.940;2023-03-21T02:52:11;35.92;;;25.35;;
53207;SDS011;39093;52.788;6.940;2023-03-21T02:55:01;35.30;;;26.60;;
53207;SDS011;39093;52.788;6.940;2023-03-21T02:57:31;33.25;;;23.50;;
53207;SDS011;39093;52.788;6.940;2023-03-21T03:00:08;34.28;;;24.73;;
53207;SDS011;39093;52.788;6.940;2023-03-21T03:02:42;30.98;;;23.20;;
53207;SDS011;39093;52.788;6.940;2023-03-21T03:05:29;33.20;;;24.58;;
53207;SDS011;39093;52.788;6.940;2023-03-21T03:08:16;29.35;;;22.80;;
53207;SDS011;39093;52.788;6.940;2023-03-21T03:22:40;34.72;;;22.08;;
53207;SDS011;39093;52.788;6.940;2023-03-21T03:25:36;33.20;;;22.00;;
53207;SDS011;39093;52.788;6.940;2023-03-21T03:28:16;38.22;;;22.92;;
53207;SDS011;39093;52.788;6.940;2023-03-21T03:30:47;32.30;;;24.08;;
53207;SDS011;39093;52.788;6.940;2023-03-21T03:33:32;33.28;;;22.85;;
53207;SDS011;39093;52.788;6.940;2023-03-21T03:36:03;31.05;;;24.17;;
53207;SDS011;39093;52.788;6.940;2023-03-21T03:38:36;36.05;;;25.45;;
53207;SDS011;39093;52.788;6.940;2023-03-21T03:41:07;42.40;;;26.08;;
53207;SDS011;39093;52.788;6.940;2023-03-21T03:43:42;33.80;;;25.40;;
53207;SDS011;39093;52.788;6.940;2023-03-21T03:48:53;43.78;;;28.30;;
53207;SDS011;39093;52.788;6.940;2023-03-21T03:51:25;42.67;;;28.67;;
53207;SDS011;39093;52.788;6.940;2023-03-21T03:53:56;45.33;;;29.20;;
53207;SDS011;39093;52.788;6.940;2023-03-21T03:56:27;42.38;;;27.38;;
53207;SDS011;39093;52.788;6.940;2023-03-21T03:58:55;40.28;;;28.73;;
53207;SDS011;39093;52.788;6.940;2023-03-21T04:01:22;47.40;;;30.55;;
53207;SDS011;39093;52.788;6.940;2023-03-21T04:03:49;39.17;;;28.42;;
53207;SDS011;39093;52.788;6.940;2023-03-21T04:06:32;45.90;;;29.88;;
53207;SDS011;39093;52.788;6.940;2023-03-21T04:08:58;43.25;;;29.73;;
53207;SDS011;39093;52.788;6.940;2023-03-21T04:11:30;46.13;;;30.42;;
53207;SDS011;39093;52.788;6.940;2023-03-21T04:13:57;45.85;;;30.80;;
53207;SDS011;39093;52.788;6.940;2023-03-21T04:16:24;48.35;;;29.75;;
53207;SDS011;39093;52.788;6.940;2023-03-21T04:18:51;46.83;;;30.88;;
53207;SDS011;39093;52.788;6.940;2023-03-21T04:21:18;45.15;;;29.83;;
53207;SDS011;39093;52.788;6.940;2023-03-21T04:23:46;44.65;;;31.08;;
53207;SDS011;39093;52.788;6.940;2023-03-21T04:26:13;45.00;;;29.52;;
53207;SDS011;39093;52.788;6.940;2023-03-21T04:28:40;51.00;;;31.85;;
53207;SDS011;39093;52.788;6.940;2023-03-21T04:31:07;44.20;;;30.15;;
53207;SDS011;39093;52.788;6.940;2023-03-21T04:33:50;41.03;;;30.65;;
53207;SDS011;39093;52.788;6.940;2023-03-21T04:40:05;49.42;;;30.90;;
53207;SDS011;39093;52.788;6.940;2023-03-21T04:42:33;53.28;;;32.30;;
53207;SDS011;39093;52.788;6.940;2023-03-21T04:45:00;58.00;;;33.03;;
53207;SDS011;39093;52.788;6.940;2023-03-21T04:47:27;51.90;;;31.92;;
53207;SDS011;39093;52.788;6.940;2023-03-21T04:49:54;55.72;;;32.70;;
53207;SDS011;39093;52.788;6.940;2023-03-21T04:52:22;52.88;;;32.53;;
53207;SDS011;39093;52.788;6.940;2023-03-21T04:54:50;54.88;;;32.97;;
53207;SDS011;39093;52.788;6.940;2023-03-21T04:57:17;56.13;;;33.38;;
53207;SDS011;39093;52.788;6.940;2023-03-21T04:59:44;46.60;;;32.38;;
53207;SDS011;39093;52.788;6.940;2023-03-21T05:02:12;53.83;;;32.65;;
53207;SDS011;39093;52.788;6.940;2023-03-21T05:04:38;58.80;;;31.98;;
53207;SDS011;39093;52.788;6.940;2023-03-21T05:07:06;47.85;;;30.58;;
53207;SDS011;39093;52.788;6.940;2023-03-21T05:09:33;54.08;;;32.50;;
53207;SDS011;39093;52.788;6.940;2023-03-21T05:12:00;49.38;;;30.80;;
53207;SDS011;39093;52.788;6.940;2023-03-21T05:14:27;46.67;;;31.40;;
53207;SDS011;39093;52.788;6.940;2023-03-21T05:16:54;53.28;;;32.95;;
53207;SDS011;39093;52.788;6.940;2023-03-21T05:19:24;44.88;;;29.58;;
53207;SDS011;39093;52.788;6.940;2023-03-21T05:22:07;54.00;;;30.23;;
53207;SDS011;39093;52.788;6.940;2023-03-21T05:24:36;53.10;;;31.77;;
53207;SDS011;39093;52.788;6.940;2023-03-21T05:27:07;55.35;;;31.33;;
53207;SDS011;39093;52.788;6.940;2023-03-21T05:29:34;54.25;;;30.98;;
53207;SDS011;39093;52.788;6.940;2023-03-21T05:32:01;47.63;;;30.92;;
53207;SDS011;39093;52.788;6.940;2023-03-21T05:34:28;55.47;;;32.80;;
53207;SDS011;39093;52.788;6.940;2023-03-21T05:36:56;51.47;;;31.30;;
53207;SDS011;39093;52.788;6.940;2023-03-21T05:39:22;48.42;;;32.65;;
53207;SDS011;39093;52.788;6.940;2023-03-21T05:41:49;45.97;;;30.67;;
53207;SDS011;39093;52.788;6.940;2023-03-21T05:44:16;50.08;;;30.25;;
53207;SDS011;39093;52.788;6.940;2023-03-21T05:46:43;48.97;;;30.73;;
53207;SDS011;39093;52.788;6.940;2023-03-21T05:49:10;56.78;;;31.80;;
53207;SDS011;39093;52.788;6.940;2023-03-21T05:51:37;57.38;;;32.15;;
53207;SDS011;39093;52.788;6.940;2023-03-21T05:54:04;47.22;;;30.27;;
53207;SDS011;39093;52.788;6.940;2023-03-21T05:56:31;48.03;;;31.38;;
53207;SDS011;39093;52.788;6.940;2023-03-21T05:58:58;55.00;;;31.98;;
53207;SDS011;39093;52.788;6.940;2023-03-21T06:01:25;53.72;;;31.40;;
53207;SDS011;39093;52.788;6.940;2023-03-21T06:03:52;49.00;;;28.67;;
53207;SDS011;39093;52.788;6.940;2023-03-21T06:06:19;45.40;;;28.42;;
53207;SDS011;39093;52.788;6.940;2023-03-21T06:08:46;49.80;;;29.15;;
53207;SDS011;39093;52.788;6.940;2023-03-21T06:11:19;40.92;;;27.25;;
53207;SDS011;39093;52.788;6.940;2023-03-21T06:13:51;43.17;;;27.52;;
53207;SDS011;39093;52.788;6.940;2023-03-21T06:16:18;44.85;;;29.13;;
53207;SDS011;39093;52.788;6.940;2023-03-21T06:18:45;45.35;;;28.40;;
53207;SDS011;39093;52.788;6.940;2023-03-21T06:21:12;49.35;;;28.67;;
53207;SDS011;39093;52.788;6.940;2023-03-21T06:23:39;41.88;;;28.73;;
53207;SDS011;39093;52.788;6.940;2023-03-21T06:26:06;45.78;;;26.55;;
53207;SDS011;39093;52.788;6.940;2023-03-21T06:28:33;39.92;;;25.20;;
53207;SDS011;39093;52.788;6.940;2023-03-21T06:31:00;40.80;;;24.83;;
53207;SDS011;39093;52.788;6.940;2023-03-21T06:33:27;40.17;;;26.67;;
53207;SDS011;39093;52.788;6.940;2023-03-21T06:35:54;35.58;;;24.88;;
53207;SDS011;39093;52.788;6.940;2023-03-21T06:38:23;36.88;;;24.83;;
53207;SDS011;39093;52.788;6.940;2023-03-21T06:40:51;34.72;;;24.13;;
53207;SDS011;39093;52.788;6.940;2023-03-21T06:43:18;41.45;;;25.42;;
53207;SDS011;39093;52.788;6.940;2023-03-21T06:45:46;37.50;;;24.38;;
53207;SDS011;39093;52.788;6.940;2023-03-21T06:48:12;37.15;;;24.73;;
53207;SDS011;39093;52.788;6.940;2023-03-21T06:50:39;40.03;;;25.33;;
53207;SDS011;39093;52.788;6.940;2023-03-21T06:53:09;33.95;;;22.77;;
53207;SDS011;39093;52.788;6.940;2023-03-21T06:55:36;33.90;;;23.35;;
53207;SDS011;39093;52.788;6.940;2023-03-21T06:58:03;42.03;;;25.83;;
53207;SDS011;39093;52.788;6.940;2023-03-21T07:00:30;35.45;;;23.25;;
53207;SDS011;39093;52.788;6.940;2023-03-21T07:02:58;40.42;;;23.58;;
53207;SDS011;39093;52.788;6.940;2023-03-21T07:05:26;34.30;;;22.30;;
53207;SDS011;39093;52.788;6.940;2023-03-21T07:07:53;33.33;;;21.85;;
53207;SDS011;39093;52.788;6.940;2023-03-21T07:10:20;30.55;;;21.02;;
53207;SDS011;39093;52.788;6.940;2023-03-21T07:12:46;29.33;;;21.05;;
53207;SDS011;39093;52.788;6.940;2023-03-21T07:15:13;30.98;;;21.02;;
53207;SDS011;39093;52.788;6.940;2023-03-21T07:17:41;30.92;;;20.77;;
53207;SDS011;39093;52.788;6.940;2023-03-21T07:20:08;34.22;;;21.95;;
53207;SDS011;39093;52.788;6.940;2023-03-21T07:22:37;27.05;;;19.60;;
53207;SDS011;39093;52.788;6.940;2023-03-21T07:25:05;33.03;;;20.70;;
53207;SDS011;39093;52.788;6.940;2023-03-21T07:27:33;31.85;;;20.70;;
53207;SDS011;39093;52.788;6.940;2023-03-21T07:30:00;38.13;;;22.00;;
53207;SDS011;39093;52.788;6.940;2023-03-21T07:32:26;26.73;;;19.60;;
53207;SDS011;39093;52.788;6.940;2023-03-21T07:34:55;30.75;;;20.15;;
53207;SDS011;39093;52.788;6.940;2023-03-21T07:37:22;34.40;;;19.98;;
53207;SDS011;39093;52.788;6.940;2023-03-21T07:39:49;25.08;;;17.35;;
53207;SDS011;39093;52.788;6.940;2023-03-21T07:42:16;28.02;;;19.40;;
53207;SDS011;39093;52.788;6.940;2023-03-21T07:44:44;28.23;;;18.85;;
53207;SDS011;39093;52.788;6.940;2023-03-21T07:47:11;30.90;;;18.20;;
53207;SDS011;39093;52.788;6.940;2023-03-21T07:49:38;27.63;;;18.27;;
53207;SDS011;39093;52.788;6.940;2023-03-21T07:52:04;32.35;;;17.55;;
53207;SDS011;39093;52.788;6.940;2023-03-21T07:54:34;26.65;;;17.40;;
53207;SDS011;39093;52.788;6.940;2023-03-21T07:57:01;27.17;;;17.67;;
53207;SDS011;39093;52.788;6.940;2023-03-21T07:59:27;30.08;;;17.52;;
53207;SDS011;39093;52.788;6.940;2023-03-21T08:01:54;24.80;;;17.17;;
53207;SDS011;39093;52.788;6.940;2023-03-21T08:04:21;26.35;;;15.38;;
53207;SDS011;39093;52.788;6.940;2023-03-21T08:06:49;25.45;;;16.60;;
53207;SDS011;39093;52.788;6.940;2023-03-21T08:09:16;30.23;;;18.08;;
53207;SDS011;39093;52.788;6.940;2023-03-21T08:11:43;33.10;;;18.33;;
53207;SDS011;39093;52.788;6.940;2023-03-21T08:14:10;40.65;;;18.23;;
53207;SDS011;39093;52.788;6.940;2023-03-21T08:16:36;29.67;;;16.98;;
53207;SDS011;39093;52.788;6.940;2023-03-21T08:19:12;24.48;;;16.83;;
53207;SDS011;39093;52.788;6.940;2023-03-21T08:21:39;29.77;;;17.33;;
53207;SDS011;39093;52.788;6.940;2023-03-21T08:24:09;29.45;;;18.63;;
53207;SDS011;39093;52.788;6.940;2023-03-21T08:26:43;31.25;;;17.17;;
53207;SDS011;39093;52.788;6.940;2023-03-21T08:29:11;23.98;;;16.23;;
53207;SDS011;39093;52.788;6.940;2023-03-21T08:31:39;29.48;;;16.65;;
53207;SDS011;39093;52.788;6.940;2023-03-21T08:34:06;31.13;;;17.48;;
53207;SDS011;39093;52.788;6.940;2023-03-21T08:36:35;24.05;;;16.80;;
53207;SDS011;39093;52.788;6.940;2023-03-21T08:39:03;26.88;;;15.90;;
53207;SDS011;39093;52.788;6.940;2023-03-21T08:41:31;23.42;;;16.23;;
53207;SDS011;39093;52.788;6.940;2023-03-21T08:43:58;39.40;;;23.13;;
53207;SDS011;39093;52.788;6.940;2023-03-21T08:46:25;29.63;;;16.13;;
53207;SDS011;39093;52.788;6.940;2023-03-21T08:48:53;30.75;;;15.55;;
53207;SDS011;39093;52.788;6.940;2023-03-21T08:51:20;33.00;;;16.58;;
53207;SDS011;39093;52.788;6.940;2023-03-21T08:53:47;28.02;;;16.92;;
53207;SDS011;39093;52.788;6.940;2023-03-21T08:56:17;32.03;;;17.15;;
53207;SDS011;39093;52.788;6.940;2023-03-21T08:58:44;31.27;;;17.63;;
53207;SDS011;39093;52.788;6.940;2023-03-21T09:01:11;26.23;;;17.27;;
53207;SDS011;39093;52.788;6.940;2023-03-21T09:03:42;30.35;;;15.93;;
53207;SDS011;39093;52.788;6.940;2023-03-21T09:06:09;30.80;;;17.35;;
53207;SDS011;39093;52.788;6.940;2023-03-21T09:08:39;38.20;;;16.75;;
53207;SDS011;39093;52.788;6.940;2023-03-21T09:11:11;34.85;;;17.40;;
53207;SDS011;39093;52.788;6.940;2023-03-21T09:13:39;30.88;;;17.52;;
53207;SDS011;39093;52.788;6.940;2023-03-21T09:16:06;33.35;;;18.17;;
53207;SDS011;39093;52.788;6.940;2023-03-21T09:18:33;33.97;;;17.25;;
53207;SDS011;39093;52.788;6.940;2023-03-21T09:21:13;36.05;;;17.48;;
53207;SDS011;39093;52.788;6.940;2023-03-21T09:23:41;33.17;;;18.73;;
53207;SDS011;39093;52.788;6.940;2023-03-21T09:26:10;29.70;;;15.82;;
53207;SDS011;39093;52.788;6.940;2023-03-21T09:28:38;31.30;;;16.45;;
53207;SDS011;39093;52.788;6.940;2023-03-21T09:31:06;39.40;;;16.80;;
53207;SDS011;39093;52.788;6.940;2023-03-21T09:33:38;32.63;;;15.70;;
53207;SDS011;39093;52.788;6.940;2023-03-21T09:36:08;31.75;;;16.23;;
53207;SDS011;39093;52.788;6.940;2023-03-21T09:38:40;32.20;;;16.00;;
53207;SDS011;39093;52.788;6.940;2023-03-21T09:42:01;32.03;;;15.23;;
53207;SDS011;39093;52.788;6.940;2023-03-21T09:49:55;34.45;;;17.42;;
53207;SDS011;39093;52.788;6.940;2023-03-21T09:52:48;33.63;;;17.13;;
53207;SDS011;39093;52.788;6.940;2023-03-21T09:55:35;38.30;;;17.52;;
53207;SDS011;39093;52.788;6.940;2023-03-21T09:58:06;31.50;;;15.68;;
53207;SDS011;39093;52.788;6.940;2023-03-21T10:00:58;27.75;;;15.40;;
53207;SDS011;39093;52.788;6.940;2023-03-21T10:03:32;29.25;;;17.10;;
53207;SDS011;39093;52.788;6.940;2023-03-21T10:06:03;37.60;;;17.13;;
53207;SDS011;39093;52.788;6.940;2023-03-21T10:08:36;38.45;;;18.02;;
53207;SDS011;39093;52.788;6.940;2023-03-21T10:11:11;32.17;;;16.80;;
53207;SDS011;39093;52.788;6.940;2023-03-21T10:13:45;29.95;;;16.23;;
53207;SDS011;39093;52.788;6.940;2023-03-21T10:16:34;34.50;;;16.02;;
53207;SDS011;39093;52.788;6.940;2023-03-21T10:19:15;31.88;;;17.27;;
53207;SDS011;39093;52.788;6.940;2023-03-21T10:21:44;27.73;;;16.33;;
53207;SDS011;39093;52.788;6.940;2023-03-21T10:24:27;33.60;;;17.50;;
53207;SDS011;39093;52.788;6.940;2023-03-21T10:26:57;29.17;;;16.52;;
53207;SDS011;39093;52.788;6.940;2023-03-21T10:29:28;24.25;;;15.57;;
53207;SDS011;39093;52.788;6.940;2023-03-21T10:32:04;32.20;;;16.08;;
53207;SDS011;39093;52.788;6.940;2023-03-21T10:34:50;27.02;;;16.13;;
53207;SDS011;39093;52.788;6.940;2023-03-21T10:37:27;28.25;;;17.23;;
53207;SDS011;39093;52.788;6.940;2023-03-21T10:39:53;32.03;;;16.52;;
53207;SDS011;39093;52.788;6.940;2023-03-21T10:42:22;26.77;;;16.35;;
53207;SDS011;39093;52.788;6.940;2023-03-21T10:44:52;27.85;;;17.30;;
53207;SDS011;39093;52.788;6.940;2023-03-21T10:47:28;30.60;;;16.80;;
53207;SDS011;39093;52.788;6.940;2023-03-21T10:50:04;30.38;;;16.88;;
53207;SDS011;39093;52.788;6.940;2023-03-21T10:52:36;34.35;;;18.10;;
53207;SDS011;39093;52.788;6.940;2023-03-21T10:57:37;28.33;;;16.48;;
53207;SDS011;39093;52.788;6.940;2023-03-21T11:00:04;31.45;;;14.98;;
53207;SDS011;39093;52.788;6.940;2023-03-21T11:02:48;29.05;;;15.60;;
53207;SDS011;39093;52.788;6.940;2023-03-21T11:05:23;28.58;;;16.20;;
53207;SDS011;39093;52.788;6.940;2023-03-21T11:08:02;30.23;;;15.35;;
53207;SDS011;39093;52.788;6.940;2023-03-21T11:10:33;32.30;;;15.73;;
53207;SDS011;39093;52.788;6.940;2023-03-21T11:13:07;30.25;;;15.63;;
53207;SDS011;39093;52.788;6.940;2023-03-21T11:18:25;29.63;;;17.02;;
53207;SDS011;39093;52.788;6.940;2023-03-21T11:20:56;26.42;;;15.60;;
53207;SDS011;39093;52.788;6.940;2023-03-21T11:23:27;31.13;;;15.80;;
53207;SDS011;39093;52.788;6.940;2023-03-21T11:25:57;25.23;;;14.48;;
53207;SDS011;39093;52.788;6.940;2023-03-21T11:28:31;23.80;;;13.77;;
53207;SDS011;39093;52.788;6.940;2023-03-21T11:31:02;28.63;;;13.73;;
53207;SDS011;39093;52.788;6.940;2023-03-21T11:33:31;23.58;;;12.63;;
53207;SDS011;39093;52.788;6.940;2023-03-21T11:36:03;20.92;;;11.43;;
53207;SDS011;39093;52.788;6.940;2023-03-21T11:41:04;21.08;;;11.93;;
53207;SDS011;39093;52.788;6.940;2023-03-21T11:43:34;24.02;;;12.10;;
53207;SDS011;39093;52.788;6.940;2023-03-21T11:46:11;20.25;;;11.20;;
53207;SDS011;39093;52.788;6.940;2023-03-21T11:48:44;21.45;;;12.18;;
53207;SDS011;39093;52.788;6.940;2023-03-21T11:56:33;18.30;;;11.23;;
53207;SDS011;39093;52.788;6.940;2023-03-21T12:10:39;17.38;;;9.05;;
53207;SDS011;39093;52.788;6.940;2023-03-21T12:12:58;15.98;;;8.95;;
53207;SDS011;39093;52.788;6.940;2023-03-21T12:18:39;15.18;;;7.55;;
53207;SDS011;39093;52.788;6.940;2023-03-21T12:21:38;12.43;;;8.43;;
53207;SDS011;39093;52.788;6.940;2023-03-21T12:27:03;17.95;;;8.05;;
53207;SDS011;39093;52.788;6.940;2023-03-21T12:29:40;13.52;;;8.07;;
53207;SDS011;39093;52.788;6.940;2023-03-21T12:37:56;18.88;;;8.90;;
53207;SDS011;39093;52.788;6.940;2023-03-21T12:40:34;13.95;;;8.68;;
53207;SDS011;39093;52.788;6.940;2023-03-21T12:45:51;15.38;;;8.15;;
53207;SDS011;39093;52.788;6.940;2023-03-21T12:51:07;15.52;;;8.52;;
53207;SDS011;39093;52.788;6.940;2023-03-21T12:53:48;9.38;;;7.45;;
53207;SDS011;39093;52.788;6.940;2023-03-21T12:56:20;15.05;;;7.88;;
53207;SDS011;39093;52.788;6.940;2023-03-21T12:58:52;14.63;;;7.10;;
53207;SDS011;39093;52.788;6.940;2023-03-21T13:01:44;15.02;;;7.25;;
53207;SDS011;39093;52.788;6.940;2023-03-21T13:07:14;11.30;;;6.47;;
53207;SDS011;39093;52.788;6.940;2023-03-21T13:09:45;14.43;;;7.38;;
53207;SDS011;39093;52.788;6.940;2023-03-21T13:15:21;12.13;;;6.72;;
53207;SDS011;39093;52.788;6.940;2023-03-21T13:18:01;15.75;;;7.13;;
53207;SDS011;39093;52.788;6.940;2023-03-21T13:20:54;13.13;;;7.13;;
53207;SDS011;39093;52.788;6.940;2023-03-21T13:23:32;15.63;;;7.30;;
53207;SDS011;39093;52.788;6.940;2023-03-21T13:26:01;14.57;;;7.85;;
53207;SDS011;39093;52.788;6.940;2023-03-21T13:28:29;12.88;;;7.20;;
53207;SDS011;39093;52.788;6.940;2023-03-21T13:34:19;17.38;;;7.88;;
53207;SDS011;39093;52.788;6.940;2023-03-21T13:36:48;14.80;;;8.30;;
53207;SDS011;39093;52.788;6.940;2023-03-21T13:39:18;20.90;;;8.95;;
53207;SDS011;39093;52.788;6.940;2023-03-21T13:41:49;20.33;;;7.88;;
53207;SDS011;39093;52.788;6.940;2023-03-21T13:47:02;17.80;;;9.02;;
53207;SDS011;39093;52.788;6.940;2023-03-21T13:49:34;14.60;;;7.78;;
53207;SDS011;39093;52.788;6.940;2023-03-21T13:57:34;12.00;;;6.90;;
53207;SDS011;39093;52.788;6.940;2023-03-21T14:00:20;13.15;;;7.90;;
53207;SDS011;39093;52.788;6.940;2023-03-21T14:05:39;15.40;;;6.38;;
53207;SDS011;39093;52.788;6.940;2023-03-21T14:08:14;13.55;;;6.80;;
53207;SDS011;39093;52.788;6.940;2023-03-21T14:11:00;12.30;;;6.53;;
53207;SDS011;39093;52.788;6.940;2023-03-21T14:13:31;12.07;;;6.10;;
53207;SDS011;39093;52.788;6.940;2023-03-21T14:16:14;13.93;;;5.97;;
53207;SDS011;39093;52.788;6.940;2023-03-21T14:18:47;13.93;;;6.80;;
53207;SDS011;39093;52.788;6.940;2023-03-21T14:21:22;16.92;;;6.78;;
53207;SDS011;39093;52.788;6.940;2023-03-21T14:24:04;14.50;;;6.47;;
53207;SDS011;39093;52.788;6.940;2023-03-21T14:26:34;12.93;;;6.27;;
53207;SDS011;39093;52.788;6.940;2023-03-21T14:29:06;12.52;;;6.20;;
53207;SDS011;39093;52.788;6.940;2023-03-21T14:31:51;13.45;;;6.00;;
53207;SDS011;39093;52.788;6.940;2023-03-21T14:34:20;17.02;;;7.35;;
53207;SDS011;39093;52.788;6.940;2023-03-21T14:36:50;13.00;;;6.55;;
53207;SDS011;39093;52.788;6.940;2023-03-21T14:41:56;10.85;;;5.72;;
53207;SDS011;39093;52.788;6.940;2023-03-21T14:44:33;11.32;;;5.63;;
53207;SDS011;39093;52.788;6.940;2023-03-21T14:47:20;13.15;;;5.95;;
53207;SDS011;39093;52.788;6.940;2023-03-21T14:49:49;10.25;;;5.55;;
53207;SDS011;39093;52.788;6.940;2023-03-21T14:52:18;11.90;;;6.00;;
53207;SDS011;39093;52.788;6.940;2023-03-21T14:54:57;10.77;;;5.97;;
53207;SDS011;39093;52.788;6.940;2023-03-21T14:57:26;11.60;;;5.90;;
53207;SDS011;39093;52.788;6.940;2023-03-21T14:59:57;16.65;;;5.97;;
53207;SDS011;39093;52.788;6.940;2023-03-21T15:02:29;13.60;;;5.90;;
53207;SDS011;39093;52.788;6.940;2023-03-21T15:05:42;10.57;;;6.13;;
53207;SDS011;39093;52.788;6.940;2023-03-21T15:08:34;12.10;;;5.78;;
53207;SDS011;39093;52.788;6.940;2023-03-21T15:11:00;11.32;;;6.10;;
53207;SDS011;39093;52.788;6.940;2023-03-21T15:13:34;12.60;;;5.82;;
53207;SDS011;39093;52.788;6.940;2023-03-21T15:16:05;10.47;;;5.30;;
53207;SDS011;39093;52.788;6.940;2023-03-21T15:18:33;9.35;;;5.18;;
53207;SDS011;39093;52.788;6.940;2023-03-21T15:21:05;9.48;;;5.90;;
53207;SDS011;39093;52.788;6.940;2023-03-21T15:23:47;9.80;;;5.40;;
53207;SDS011;39093;52.788;6.940;2023-03-21T15:26:17;10.30;;;6.32;;
53207;SDS011;39093;52.788;6.940;2023-03-21T15:28:47;10.30;;;5.05;;
53207;SDS011;39093;52.788;6.940;2023-03-21T15:31:16;11.73;;;6.72;;
53207;SDS011;39093;52.788;6.940;2023-03-21T15:33:46;10.27;;;5.68;;
53207;SDS011;39093;52.788;6.940;2023-03-21T15:36:17;12.93;;;5.22;;
53207;SDS011;39093;52.788;6.940;2023-03-21T15:38:47;7.63;;;5.13;;
53207;SDS011;39093;52.788;6.940;2023-03-21T15:46:45;10.52;;;5.57;;
53207;SDS011;39093;52.788;6.940;2023-03-21T15:52:15;13.88;;;4.90;;
53207;SDS011;39093;52.788;6.940;2023-03-21T15:54:35;10.30;;;4.75;;
53207;SDS011;39093;52.788;6.940;2023-03-21T16:02:24;11.27;;;5.63;;
53207;SDS011;39093;52.788;6.940;2023-03-21T16:05:00;13.75;;;5.28;;
53207;SDS011;39093;52.788;6.940;2023-03-21T16:07:43;12.20;;;6.13;;
53207;SDS011;39093;52.788;6.940;2023-03-21T16:10:23;11.95;;;5.63;;
53207;SDS011;39093;52.788;6.940;2023-03-21T16:13:03;11.05;;;5.93;;
53207;SDS011;39093;52.788;6.940;2023-03-21T16:15:34;12.45;;;6.38;;
53207;SDS011;39093;52.788;6.940;2023-03-21T16:18:01;17.02;;;5.88;;
53207;SDS011;39093;52.788;6.940;2023-03-21T16:20:37;14.38;;;5.68;;
53207;SDS011;39093;52.788;6.940;2023-03-21T16:23:11;13.55;;;6.72;;
53207;SDS011;39093;52.788;6.940;2023-03-21T16:25:40;12.60;;;5.72;;
53207;SDS011;39093;52.788;6.940;2023-03-21T16:28:19;16.35;;;6.78;;
53207;SDS011;39093;52.788;6.940;2023-03-21T16:30:50;12.65;;;5.80;;
53207;SDS011;39093;52.788;6.940;2023-03-21T16:33:16;8.18;;;5.03;;
53207;SDS011;39093;52.788;6.940;2023-03-21T16:35:46;13.43;;;5.97;;
53207;SDS011;39093;52.788;6.940;2023-03-21T16:38:13;11.77;;;5.70;;
53207;SDS011;39093;52.788;6.940;2023-03-21T16:40:40;17.85;;;6.30;;
53207;SDS011;39093;52.788;6.940;2023-03-21T16:43:09;15.50;;;6.40;;
53207;SDS011;39093;52.788;6.940;2023-03-21T16:45:36;15.52;;;6.07;;
53207;SDS011;39093;52.788;6.940;2023-03-21T16:48:03;14.32;;;6.57;;
53207;SDS011;39093;52.788;6.940;2023-03-21T16:50:32;12.75;;;5.60;;
53207;SDS011;39093;52.788;6.940;2023-03-21T16:53:01;10.77;;;5.57;;